Time;durP1;ratioP1;P1;durP2;ratioP2;P2;SDS_P1;SDS_P2;PMS_P1;PMS_P2;Temp;Humidity;BMP_temperature;BMP_pressure;BME280_temperature;BME280_humidity;BME280_pressure;Samples;Min_cycle;Max_cycle;Signal;HPM_P1;HPM_P2
2022/05/24 15:16:41;;;;;;;10.70;2.07;;;19.10;99.90;;;18.90;50.86;100458.47;5052032;27;97101;-77
2022/05/24 15:19:06;;;;;;;17.33;2.40;;;18.80;99.90;;;19.06;50.37;100468.91;4962215;27;97660;-77
2022/05/24 15:21:36;;;;;;;19.37;2.80;;;19.00;99.90;;;19.26;50.80;100470.09;5043480;27;101118;-77
2022/05/24 15:24:07;;;;;;;8.23;1.63;;;19.20;99.90;;;19.27;50.80;100472.66;5011134;27;97614;-77
2022/05/24 15:26:38;;;;;;;9.83;2.00;;;19.30;99.90;;;19.10;49.26;100478.41;5028684;27;97078;-76
2022/05/24 15:29:06;;;;;;;12.40;1.73;;;19.20;99.90;;;19.13;52.24;100480.84;4996648;27;99080;-77
2022/05/24 15:31:32;;;;;;;15.07;1.80;;;19.10;99.90;;;19.41;51.50;100487.69;5041915;27;97502;-77
2022/05/24 15:34:01;;;;;;;6.57;1.70;;;19.40;99.90;;;19.54;51.52;100490.28;4999454;27;97856;-77
2022/05/24 15:36:30;;;;;;;9.67;1.53;;;19.50;99.90;;;19.62;50.47;100477.19;5006141;27;97322;-77
2022/05/24 15:38:57;;;;;;;9.80;1.70;;;19.60;99.90;;;19.80;49.65;100491.00;5023804;27;97043;-78
2022/05/24 15:41:22;;;;;;;4.27;1.00;;;19.80;99.90;;;19.78;48.52;100490.25;5022542;27;97210;-77
2022/05/24 15:43:48;;;;;;;4.03;1.40;;;19.80;99.80;;;19.88;50.74;100489.44;5045467;27;122605;-77
2022/05/24 15:46:15;;;;;;;3.83;1.10;;;19.90;99.90;;;19.86;49.77;100491.38;5014344;27;97597;-77
2022/05/24 15:48:43;;;;;;;5.23;1.17;;;19.90;99.90;;;19.83;47.75;100496.97;4994165;27;97579;-77
2022/05/24 15:51:09;;;;;;;5.40;1.23;;;19.90;99.30;;;19.94;50.72;100490.78;5027976;27;98601;-78
2022/05/24 15:53:36;;;;;;;2.33;0.80;;;19.90;99.90;;;20.02;49.88;100495.56;5043795;27;97756;-76
2022/05/24 15:56:06;;;;;;;2.53;0.97;;;20.00;99.90;;;20.03;47.23;100491.91;5026981;27;99677;-76
2022/05/24 15:58:34;;;;;;;4.83;1.10;;;20.00;98.90;;;20.09;50.23;100486.06;5049931;27;97346;-76
2022/05/24 16:01:00;;;;;;;3.60;1.03;;;20.00;99.90;;;20.17;49.91;100489.00;5024949;27;102159;-76
2022/05/24 16:03:26;;;;;;;2.83;0.90;;;20.10;99.90;;;20.26;49.86;100490.13;5031515;27;97953;-76
2022/05/24 16:11:24;;;;;;;1.93;1.00;;;20.20;98.80;;;20.34;46.51;100496.56;5046909;27;101435;-79
2022/05/24 16:13:55;;;;;;;1.77;0.70;;;20.30;98.20;;;20.31;49.38;100487.91;5048304;27;97230;-78
2022/05/24 16:16:24;;;;;;;2.03;0.90;;;20.20;99.90;;;20.34;47.58;100501.06;5009258;27;96861;-78
2022/05/24 16:18:49;;;;;;;1.60;0.87;;;20.20;99.40;;;20.38;49.77;100514.09;5030981;27;97138;-79
2022/05/24 16:21:16;;;;;;;1.73;0.80;;;20.30;99.90;;;20.18;49.21;100512.13;5028822;27;126210;-79
2022/05/24 16:23:43;;;;;;;2.97;1.03;;;20.20;99.60;;;20.30;49.49;100515.69;5037160;27;97265;-78
2022/05/24 16:26:10;;;;;;;2.60;0.90;;;20.30;99.90;;;20.23;47.91;100520.66;5038601;27;99138;-78
2022/05/24 16:28:36;;;;;;;2.07;0.90;;;20.30;99.50;;;20.25;49.39;100526.72;5031761;27;97086;-78
2022/05/24 16:31:02;;;;;;;5.97;1.20;;;20.30;99.90;;;20.27;49.74;100532.84;5010332;27;99510;-79
2022/05/24 16:33:29;;;;;;;2.93;1.17;;;20.30;99.90;;;20.34;48.88;100526.03;5013236;27;97588;-79
2022/05/24 16:35:58;;;;;;;3.13;0.80;;;20.40;99.90;;;20.33;47.57;100532.34;5007899;27;98506;-79
2022/05/24 16:38:25;;;;;;;2.57;0.80;;;20.30;99.60;;;20.30;48.75;100537.09;5015123;27;97957;-78
2022/05/24 16:40:50;;;;;;;1.03;0.90;;;20.30;99.60;;;20.37;49.67;100539.16;4998861;27;98509;-78
2022/05/24 16:43:17;;;;;;;1.47;0.70;;;20.40;99.80;;;20.34;48.64;100542.09;5025726;27;97255;-78
2022/05/24 16:45:43;;;;;;;2.20;0.70;;;20.40;99.50;;;20.27;46.96;100540.88;5029683;27;97282;-78
2022/05/24 16:48:14;;;;;;;0.73;0.73;;;20.40;98.50;;;20.21;49.03;100549.38;5013718;27;98247;-78
2022/05/24 16:50:43;;;;;;;2.30;1.33;;;20.30;99.90;;;20.33;47.84;100559.13;5029686;27;99045;-78
2022/05/24 16:53:11;;;;;;;1.07;0.50;;;20.30;98.50;;;20.18;46.94;100554.97;5008979;27;99113;-78
2022/05/24 17:01:05;;;;;;;1.70;1.00;;;20.10;99.90;;;19.93;49.77;100566.69;5017552;27;97340;-78
2022/05/24 17:03:31;;;;;;;1.90;1.03;;;20.00;99.80;;;19.99;48.22;100560.03;5013993;27;114535;-78
2022/05/24 17:05:57;;;;;;;1.87;0.93;;;20.00;99.50;;;20.17;49.97;100548.75;5006615;27;97123;-79
2022/05/24 17:08:23;;;;;;;1.43;1.00;;;20.20;99.90;;;20.14;49.34;100557.03;5013277;27;110334;-79
2022/05/24 17:10:48;;;;;;;1.00;0.90;;;20.20;99.90;;;20.21;50.05;100554.72;4998520;27;97538;-79
2022/05/24 17:13:15;;;;;;;2.67;1.00;;;20.20;99.90;;;20.30;48.60;100559.38;5007554;27;106682;-79
2022/05/24 17:15:41;;;;;;;3.37;1.17;;;20.30;99.30;;;20.30;50.07;100559.38;5012098;27;97087;-79
2022/05/24 17:18:08;;;;;;;1.57;1.20;;;20.30;99.90;;;20.39;49.72;100563.16;5011285;27;97447;-79
2022/05/24 17:20:34;;;;;;;1.70;1.13;;;20.40;99.90;;;20.37;48.70;100565.09;5031513;27;98708;-79
2022/05/24 17:23:03;;;;;;;4.23;1.40;;;20.40;99.90;;;20.42;49.47;100566.50;4997553;27;97046;-79
2022/05/24 17:25:29;;;;;;;2.83;1.30;;;20.40;99.90;;;20.47;48.64;100566.13;4997825;27;96929;-79
2022/05/24 17:27:55;;;;;;;2.47;1.27;;;20.50;99.40;;;20.53;49.37;100564.78;5010654;27;96971;-79
2022/05/24 17:30:28;;;;;;;2.80;1.17;;;20.50;99.90;;;20.52;49.38;100563.09;5012155;27;98100;-78
2022/05/24 17:33:05;;;;;;;2.10;1.23;;;20.50;99.90;;;20.59;49.51;100569.69;5015387;27;98572;-79
2022/05/24 17:35:38;;;;;;;2.73;1.23;;;20.60;99.90;;;20.58;48.42;100562.63;5009697;27;96984;-79
2022/05/24 17:38:05;;;;;;;0.83;0.83;;;20.60;99.30;;;20.59;49.04;100570.53;5009704;27;96931;-79
2022/05/24 17:40:34;;;;;;;1.77;1.00;;;20.60;99.90;;;20.64;49.44;100568.34;5031657;27;98226;-79
2022/05/24 17:43:01;;;;;;;2.07;1.20;;;20.60;99.90;;;20.58;46.52;100578.69;5009068;27;97668;-79
2022/05/24 17:45:27;;;;;;;1.73;0.90;;;20.60;98.20;;;20.42;46.91;100579.91;5020382;27;97589;-78
2022/05/24 17:47:53;;;;;;;0.87;0.57;;;20.50;98.80;;;20.55;49.33;100577.13;5009454;27;97612;-78
2022/05/24 17:50:21;;;;;;;2.80;1.17;;;20.60;99.90;;;20.54;46.84;100583.41;4990212;27;100444;-78
2022/05/24 17:52:47;;;;;;;1.63;0.90;;;20.50;97.60;;;20.44;46.37;100583.31;5028637;27;97246;-78
2022/05/24 17:55:13;;;;;;;1.40;1.03;;;20.50;98.00;;;20.54;48.28;100585.25;5008454;27;97310;-78
2022/05/24 17:57:40;;;;;;;4.00;1.03;;;20.60;99.30;;;20.63;49.07;100587.22;5011301;27;97372;-79
2022/05/24 18:00:09;;;;;;;2.07;0.50;;;20.70;99.90;;;20.60;48.10;100587.47;5026269;27;99848;-79
2022/05/24 18:02:37;;;;;;;3.20;0.80;;;20.60;99.70;;;20.61;48.97;100597.22;5027178;27;97172;-79
2022/05/24 18:05:05;;;;;;;4.43;0.80;;;20.60;99.30;;;20.62;48.79;100596.22;5015000;27;97425;-79
2022/05/24 18:07:31;;;;;;;1.40;0.70;;;20.60;98.80;;;20.64;48.50;100596.97;5029505;27;98463;-78
2022/05/24 18:09:57;;;;;;;1.30;0.90;;;20.60;98.50;;;20.66;49.02;100597.69;5006737;27;113903;-79
2022/05/24 18:12:23;;;;;;;3.03;0.80;;;20.60;99.50;;;20.64;47.70;100591.59;5017844;27;97060;-78
2022/05/24 18:14:48;;;;;;;2.43;0.63;;;20.60;99.40;;;20.66;49.23;100592.31;5000024;27;97747;-78
2022/05/24 18:17:14;;;;;;;0.73;0.70;;;20.60;99.90;;;20.68;48.91;100596.59;4987248;27;110148;-77
2022/05/24 18:19:40;;;;;;;1.03;0.60;;;20.60;98.90;;;20.65;48.28;100598.66;4999807;27;99421;-77
2022/05/24 18:22:17;;;;;;;1.33;0.60;;;20.50;98.00;;;20.68;48.87;100601.09;5025007;27;97201;-78
2022/05/24 18:24:55;;;;;;;2.47;0.60;;;20.60;99.90;;;20.67;49.04;100610.13;5017700;27;97049;-77
2022/05/24 18:33:09;;;;;;;3.23;0.80;;;20.60;99.80;;;20.68;48.88;100595.72;5010234;27;99294;-77
2022/05/24 18:35:57;;;;;;;3.37;0.87;;;20.70;99.70;;;20.69;48.92;100587.59;5000103;27;97187;-77
2022/05/24 18:38:23;;;;;;;0.67;0.47;;;20.60;99.90;;;20.71;48.95;100596.38;5027115;27;96928;-77
2022/05/24 18:40:49;;;;;;;2.33;0.73;;;20.70;99.90;;;20.70;48.77;100588.47;5014135;27;97547;-77
2022/05/24 18:43:16;;;;;;;1.20;0.50;;;20.60;98.80;;;20.69;49.08;100603.69;5009141;27;98135;-77
2022/05/24 18:45:41;;;;;;;2.53;0.53;;;20.60;99.80;;;20.70;48.86;100604.53;4997485;27;98341;-77
2022/05/24 18:48:10;;;;;;;1.13;0.60;;;20.60;99.80;;;20.71;49.02;100601.72;5007534;27;97987;-77
2022/05/24 18:50:36;;;;;;;2.47;0.63;;;20.70;99.80;;;20.69;47.62;100609.03;4992618;27;99227;-76
2022/05/24 18:53:02;;;;;;;1.83;0.80;;;20.60;96.90;;;20.60;43.70;100606.22;4990867;27;99099;-71
2022/05/24 18:55:28;;;;;;;0.97;0.50;;;20.60;96.20;;;20.62;49.28;100604.28;5012008;27;96915;-78
2022/05/24 18:57:55;;;;;;;0.60;0.50;;;20.50;99.90;;;20.64;49.26;100615.72;5009636;27;107598;-78
2022/05/24 19:00:22;;;;;;;0.50;0.50;;;20.50;99.50;;;20.67;49.17;100610.13;4988523;27;100655;-78
2022/05/24 19:02:48;;;;;;;0.50;0.40;;;20.60;99.90;;;20.65;49.33;100606.72;5025312;27;97521;-77
2022/05/24 19:05:14;;;;;;;0.70;0.43;;;20.60;99.90;;;20.69;49.37;100614.41;5024162;27;96971;-77
2022/05/24 19:07:40;;;;;;;1.13;0.70;;;20.60;99.90;;;20.71;49.36;100622.31;5010632;27;97302;-77
2022/05/24 19:10:08;;;;;;;0.90;0.40;;;20.70;99.60;;;20.75;49.07;100621.09;5006603;27;115329;-77
2022/05/24 19:12:33;;;;;;;1.00;0.43;;;20.70;99.90;;;20.76;49.27;100625.47;5030731;27;97594;-78
2022/05/24 19:14:59;;;;;;;1.27;0.40;;;20.70;99.90;;;20.77;49.22;100630.72;5007689;27;97443;-77
2022/05/24 19:17:30;;;;;;;0.93;0.50;;;20.70;99.90;;;20.79;49.24;100646.69;5028353;27;96830;-77
2022/05/24 19:19:56;;;;;;;2.63;0.50;;;20.80;99.90;;;20.80;48.98;100643.03;5010298;27;98035;-78
2022/05/24 19:22:22;;;;;;;1.50;0.63;;;20.80;99.90;;;20.82;48.99;100645.56;5012007;27;96883;-77
2022/05/24 19:24:51;;;;;;;2.00;0.80;;;20.80;99.90;;;20.81;48.83;100644.72;5012176;27;98080;-77
2022/05/24 19:27:22;;;;;;;1.43;0.30;;;20.80;98.50;;;20.82;49.12;100651.78;5006913;27;97708;-77
2022/05/24 19:29:49;;;;;;;3.00;0.83;;;20.80;99.90;;;20.79;48.62;100657.41;5011205;27;98270;-78
2022/05/24 19:32:19;;;;;;;1.67;1.00;;;20.70;97.90;;;20.74;47.10;100657.78;5005029;27;97367;-78
2022/05/24 19:34:45;;;;;;;2.40;0.70;;;20.70;97.90;;;20.74;49.37;100667.63;5010708;27;98288;-78
2022/05/24 19:37:15;;;;;;;1.10;0.60;;;20.60;99.90;;;20.76;49.30;100679.09;5027065;27;97285;-78
2022/05/24 19:42:27;;;;;;;2.37;0.67;;;20.60;97.90;;;20.68;49.25;100676.13;5023291;27;100736;-78
2022/05/24 19:44:53;;;;;;;1.10;0.70;;;20.50;99.10;;;20.68;49.42;100684.19;5014449;27;97204;-78
2022/05/24 19:47:19;;;;;;;1.57;0.57;;;20.50;99.90;;;20.68;49.24;100681.50;4994922;27;97032;-78
2022/05/24 19:49:47;;;;;;;0.40;0.40;;;20.50;99.80;;;20.68;49.52;100686.84;5007959;27;96911;-78
2022/05/24 19:52:15;;;;;;;0.60;0.60;;;20.50;99.90;;;20.70;49.51;100698.34;5013824;27;98103;-78
2022/05/24 19:54:42;;;;;;;0.80;0.70;;;20.60;99.90;;;20.72;49.57;100699.06;5010853;27;96910;-78
2022/05/24 19:57:11;;;;;;;0.80;0.50;;;20.60;99.90;;;20.74;49.34;100702.47;5004799;27;97050;-78
2022/05/24 19:59:36;;;;;;;0.50;0.50;;;20.70;99.90;;;20.72;49.32;100704.44;5017652;27;98511;-78
2022/05/24 20:02:02;;;;;;;1.40;0.53;;;20.60;99.80;;;20.72;49.31;100715.16;5014183;27;106135;-78
2022/05/24 20:04:29;;;;;;;1.33;0.83;;;20.60;99.90;;;20.71;49.48;100703.59;5004951;27;97537;-78
2022/05/24 20:06:54;;;;;;;1.30;0.50;;;20.60;99.90;;;20.71;49.39;100711.63;5016532;27;97568;-78
2022/05/24 20:09:21;;;;;;;0.70;0.50;;;20.60;99.90;;;20.72;49.39;100720.50;5027661;27;100100;-78
2022/05/24 20:11:46;;;;;;;1.57;0.50;;;20.60;99.90;;;20.74;49.69;100718.56;5015334;27;114611;-78
2022/05/24 20:14:13;;;;;;;0.93;0.50;;;20.70;99.90;;;20.76;49.44;100716.63;5008522;27;97574;-78
2022/05/24 20:16:39;;;;;;;1.03;0.47;;;20.70;99.60;;;20.76;49.39;100721.97;5016788;27;98132;-77
2022/05/24 20:19:06;;;;;;;1.63;0.50;;;20.70;99.90;;;20.74;49.43;100715.88;5013867;27;99986;-78
2022/05/24 20:21:33;;;;;;;1.37;0.57;;;20.60;99.90;;;20.75;49.33;100720.28;5015153;27;97573;-77
2022/05/24 20:23:59;;;;;;;0.50;0.50;;;20.70;99.30;;;20.74;49.44;100726.59;5023131;27;97364;-77
2022/05/24 20:26:26;;;;;;;0.50;0.50;;;20.60;99.90;;;20.72;49.57;100728.56;5032953;27;97262;-76
2022/05/24 20:28:52;;;;;;;1.13;0.60;;;20.60;99.80;;;20.72;49.68;100733.91;4995655;27;98835;-76
2022/05/24 20:31:20;;;;;;;1.07;0.40;;;20.60;99.90;;;20.73;49.48;100735.63;5028235;27;97038;-77
2022/05/24 20:33:46;;;;;;;1.50;0.80;;;20.60;99.30;;;20.71;49.56;100729.53;5032906;27;97966;-77
2022/05/24 20:36:12;;;;;;;0.97;0.60;;;20.60;99.60;;;20.70;49.73;100738.53;5011925;27;97457;-77
2022/05/24 20:38:41;;;;;;;0.63;0.63;;;20.60;99.90;;;20.69;49.89;100744.88;5014921;27;98356;-77
2022/05/24 20:41:15;;;;;;;0.53;0.53;;;20.60;99.90;;;20.69;49.92;100739.50;5028473;27;98129;-77
2022/05/24 20:43:41;;;;;;;0.60;0.50;;;20.50;99.90;;;20.67;49.95;100736.94;5012818;27;97656;-77
2022/05/24 20:46:07;;;;;;;0.70;0.50;;;20.50;99.90;;;20.68;49.82;100740.47;5026512;27;97391;-77
2022/05/24 20:48:34;;;;;;;1.53;0.47;;;20.50;99.90;;;20.67;49.69;100744.97;5013242;27;97543;-76
2022/05/24 20:51:01;;;;;;;1.00;0.50;;;20.60;99.90;;;20.64;49.78;100741.66;5026042;27;99654;-77
2022/05/24 20:53:27;;;;;;;0.70;0.50;;;20.50;99.90;;;20.63;50.15;100737.28;5032759;27;98371;-77
2022/05/24 20:55:54;;;;;;;0.33;0.30;;;20.50;99.90;;;20.62;50.09;100736.44;5015108;27;97284;-76
2022/05/24 20:58:19;;;;;;;0.77;0.40;;;20.50;99.90;;;20.60;50.17;100740.22;5024884;27;99575;-77
2022/05/24 21:00:45;;;;;;;0.73;0.50;;;20.40;99.90;;;20.60;50.24;100740.22;5014279;27;128162;-77
2022/05/24 21:03:15;;;;;;;1.20;0.57;;;20.40;99.90;;;20.60;50.27;100732.16;5004805;27;98691;-76
2022/05/24 21:05:42;;;;;;;0.60;0.30;;;20.50;99.90;;;20.61;50.15;100739.22;4999499;27;97402;-77
2022/05/24 21:08:08;;;;;;;0.30;0.30;;;20.50;99.90;;;20.61;50.15;100739.22;5029644;27;97960;-76
2022/05/24 21:10:34;;;;;;;0.43;0.43;;;20.50;99.90;;;20.61;50.39;100749.94;5016151;27;97310;-76
2022/05/24 21:13:02;;;;;;;0.37;0.30;;;20.50;99.90;;;20.61;50.38;100744.59;5031664;27;97610;-77
2022/05/24 21:15:30;;;;;;;0.40;0.30;;;20.50;99.90;;;20.61;50.33;100752.63;5016247;27;97505;-76
2022/05/24 21:17:56;;;;;;;0.30;0.30;;;20.50;99.90;;;20.63;50.35;100753.38;5012079;27;99659;-78
2022/05/24 21:20:23;;;;;;;0.67;0.53;;;20.50;99.90;;;20.64;50.31;100760.44;5018312;27;100811;-77
2022/05/24 21:22:49;;;;;;;0.50;0.50;;;20.50;99.90;;;20.66;50.45;100763.84;5019151;27;97335;-77
2022/05/24 21:28:08;;;;;;;1.17;0.50;;;20.60;99.90;;;20.69;50.29;100755.59;5030762;27;97321;-77
2022/05/24 21:30:47;;;;;;;0.30;0.30;;;20.60;99.90;;;20.67;50.32;100760.19;5011355;27;98430;-76
2022/05/24 21:33:22;;;;;;;0.50;0.40;;;20.50;99.90;;;20.65;50.22;100767.50;5011538;27;97095;-76
2022/05/24 21:35:49;;;;;;;0.60;0.47;;;20.50;99.90;;;20.64;50.35;100776.50;5017033;27;98165;-76
2022/05/24 21:38:17;;;;;;;0.53;0.40;;;20.50;99.90;;;20.65;50.42;100772.84;4990344;27;100060;-77
2022/05/24 21:40:44;;;;;;;0.93;0.43;;;20.50;99.90;;;20.66;50.24;100774.56;4994058;27;97954;-76
2022/05/24 21:43:10;;;;;;;0.77;0.50;;;20.50;99.90;;;20.66;50.45;100774.56;5022009;27;97563;-77
2022/05/24 21:45:39;;;;;;;0.73;0.50;;;20.50;99.90;;;20.61;50.45;100779.44;5016902;27;97045;-76
2022/05/24 21:48:14;;;;;;;0.63;0.43;;;20.50;99.90;;;20.62;50.51;100778.47;5032196;27;96885;-76
2022/05/24 21:50:41;;;;;;;0.57;0.30;;;20.40;99.90;;;20.57;50.56;100780.63;5011985;27;98499;-77
2022/05/24 21:53:12;;;;;;;0.70;0.70;;;20.40;99.90;;;20.55;50.69;100782.59;5010958;27;97169;-77
2022/05/24 21:55:43;;;;;;;0.40;0.30;;;20.30;99.90;;;20.53;50.67;100788.03;5018934;27;97346;-77
2022/05/24 21:58:10;;;;;;;0.80;0.80;;;20.30;99.90;;;20.52;50.86;100798.88;4998173;27;100771;-77
2022/05/24 22:00:52;;;;;;;0.73;0.50;;;20.30;99.90;;;20.52;50.86;100801.53;5033543;27;115988;-77
2022/05/24 22:03:25;;;;;;;0.40;0.40;;;20.30;99.90;;;20.49;50.99;100803.50;4989592;27;98381;-76
2022/05/24 22:05:51;;;;;;;0.73;0.60;;;20.20;99.90;;;20.48;50.94;100804.47;5017244;27;99293;-76
2022/05/24 22:08:17;;;;;;;0.90;0.63;;;20.30;99.90;;;20.45;51.04;100804.69;4997626;27;100822;-76
2022/05/24 22:10:44;;;;;;;1.13;0.33;;;20.20;99.90;;;20.45;51.14;100807.38;5033510;27;97197;-76
2022/05/24 22:13:15;;;;;;;0.87;0.40;;;20.20;99.90;;;20.44;50.82;100811.03;5031697;27;97407;-76
2022/05/24 22:15:41;;;;;;;3.67;1.63;;;20.20;99.90;;;20.39;50.89;100805.09;5012337;27;97920;-76
2022/05/24 22:18:07;;;;;;;1.33;0.57;;;20.10;99.90;;;20.38;51.09;100819.47;5014433;27;97629;-77
2022/05/24 22:20:33;;;;;;;1.20;0.37;;;20.10;99.90;;;20.36;51.21;100818.72;5035171;27;97435;-77
2022/05/24 22:23:00;;;;;;;0.60;0.50;;;20.10;99.90;;;20.36;51.25;100818.72;5014605;27;97783;-77
2022/05/24 22:25:26;;;;;;;0.50;0.50;;;20.00;99.90;;;20.35;51.36;100822.38;5034430;27;97417;-76
2022/05/24 22:27:52;;;;;;;0.57;0.57;;;20.10;99.90;;;20.36;51.25;100817.88;5032224;27;96929;-76
2022/05/24 22:30:19;;;;;;;0.93;0.50;;;20.10;99.90;;;20.40;51.09;100812.19;5025375;27;108520;-77
2022/05/24 22:32:45;;;;;;;0.77;0.57;;;20.20;99.90;;;20.46;50.95;100822.47;5010101;27;97350;-78
2022/05/24 22:35:13;;;;;;;0.67;0.40;;;20.30;99.90;;;20.50;50.87;100818.59;5027793;27;100218;-78
2022/05/24 22:37:43;;;;;;;0.60;0.60;;;20.40;99.90;;;20.56;50.81;100827.16;4994045;27;97531;-77
2022/05/24 22:40:12;;;;;;;0.77;0.50;;;20.50;99.90;;;20.59;50.83;100829.59;5007289;27;98651;-78
2022/05/24 22:42:38;;;;;;;0.70;0.50;;;20.50;99.90;;;20.59;50.84;100826.94;5018081;27;97094;-79
2022/05/24 22:45:05;;;;;;;0.90;0.60;;;20.50;99.90;;;20.63;50.71;100828.41;5028650;27;97146;-76
2022/05/24 22:47:33;;;;;;;0.40;0.30;;;20.60;99.90;;;20.66;50.56;100828.16;5035929;27;98527;-76
2022/05/24 22:50:04;;;;;;;0.60;0.43;;;20.60;99.90;;;20.65;50.79;100831.81;4996626;27;98191;-77
2022/05/24 22:52:31;;;;;;;0.70;0.70;;;20.60;99.90;;;20.63;50.70;100839.97;5024200;27;97415;-76
2022/05/24 22:54:59;;;;;;;0.93;0.63;;;20.50;99.90;;;20.65;50.51;100837.19;5031146;27;96910;-77
2022/05/24 22:57:25;;;;;;;2.23;0.70;;;20.50;99.90;;;20.65;50.64;100831.81;5016642;27;97039;-76
2022/05/24 22:59:51;;;;;;;0.60;0.40;;;20.50;99.90;;;20.59;50.78;100837.66;5002654;27;97464;-76
2022/05/24 23:02:16;;;;;;;1.93;1.27;;;20.40;99.90;;;20.55;50.70;100836.19;5013459;27;98377;-76
2022/05/24 23:04:43;;;;;;;0.70;0.70;;;20.30;99.90;;;20.50;50.95;100834.66;5018587;27;108969;-76
2022/05/24 23:07:14;;;;;;;0.80;0.70;;;20.20;99.90;;;20.50;50.78;100840.03;5013658;27;97541;-76
2022/05/24 23:09:42;;;;;;;1.00;0.80;;;20.20;99.90;;;20.41;51.22;100837.16;5036958;27;97575;-76
2022/05/24 23:12:09;;;;;;;0.60;0.60;;;20.10;99.90;;;20.39;51.17;100837.25;5032380;27;97227;-77
2022/05/24 23:14:35;;;;;;;0.60;0.60;;;20.10;99.90;;;20.36;51.35;100837.47;5036043;27;97849;-76
2022/05/24 23:17:02;;;;;;;1.13;0.60;;;20.00;99.90;;;20.31;51.78;100836.97;5032104;27;98746;-77
2022/05/24 23:19:28;;;;;;;0.60;0.60;;;20.00;99.90;;;20.29;51.51;100846.09;5011819;27;99080;-76
2022/05/24 23:21:55;;;;;;;3.47;1.40;;;20.00;99.90;;;20.26;51.29;100841.81;5018013;27;101301;-76
2022/05/24 23:24:23;;;;;;;0.60;0.50;;;19.90;99.90;;;20.25;51.64;100840.09;5014383;27;97190;-76
2022/05/24 23:26:49;;;;;;;0.70;0.70;;;19.90;99.90;;;20.25;51.85;100842.75;4991152;27;101017;-76
2022/05/24 23:29:15;;;;;;;0.63;0.57;;;19.90;99.90;;;20.25;51.87;100837.41;4988042;27;97342;-76
2022/05/24 23:31:41;;;;;;;0.70;0.70;;;20.00;99.90;;;20.26;51.77;100846.31;5016883;27;97140;-76
2022/05/24 23:34:07;;;;;;;0.60;0.50;;;20.00;99.90;;;20.30;51.49;100840.63;5011333;27;98794;-76
2022/05/24 23:36:34;;;;;;;1.10;0.70;;;20.10;99.90;;;20.33;51.64;100829.69;5016588;27;123422;-76
2022/05/24 23:39:00;;;;;;;0.77;0.70;;;20.10;99.90;;;20.31;51.53;100839.66;5012690;27;97257;-76
2022/05/24 23:41:29;;;;;;;0.97;0.50;;;20.10;99.90;;;20.30;51.70;100843.31;5015279;27;98814;-76
2022/05/24 23:43:55;;;;;;;1.17;0.60;;;20.10;99.90;;;20.28;51.75;100839.88;5033328;27;104737;-76
2022/05/24 23:46:21;;;;;;;0.77;0.60;;;20.00;99.90;;;20.27;51.72;100846.22;5030367;27;102399;-76
2022/05/24 23:48:47;;;;;;;1.13;0.73;;;20.00;99.90;;;20.26;51.84;100847.19;5019502;27;99620;-76
2022/05/24 23:51:13;;;;;;;1.60;0.60;;;20.00;99.90;;;20.25;51.78;100849.94;5018888;27;96979;-79
2022/05/24 23:53:39;;;;;;;0.67;0.60;;;20.00;99.90;;;20.23;51.76;100852.75;5018034;27;97365;-76
2022/05/24 23:56:05;;;;;;;1.27;0.80;;;19.90;99.90;;;20.25;51.78;100850.81;5025188;27;96986;-77
2022/05/24 23:58:31;;;;;;;0.70;0.60;;;20.00;99.90;;;20.25;51.61;100845.44;5023594;27;97152;-76
